Latest Coastal Weather Observations for Melbourne (Olympic Park)

IDV60701

Issued at 1:02 am EDT Tuesday 19 October 2021 (issued every 10 minutes, with the page automatically refreshed every 10 minutes)

About coastal observations | Map of coastal stations | Coastal observations for VIC | Marine services | Other Formats
Station Details ID: 086338 Name: MELBOURNE (OLYMPIC PARK) Lat: -37.83 Lon: 144.98 Height: 7.53 m
Data from the previous 72 hours. | See also: Recent months at Melbourne (Olympic Park)
Date/Time
EDT
Wind Sea
Height
m
Swell Vis
km
Cloud Weather Temp
°C
Press
MSL
hPa
Rain since
9am
mm
Dir  Spd
kts
Gust
kts
Height
m
Period
s
Dir
19/01:00am W 4 7 - - - - 10 - - 11.2 1019.0 0.6
19/12:30am SSW 4 7 - - - - 10 - - 11.6 1018.9 0.6
19/12:00am SW 4 7 - - - - 10 - - 11.6 1018.9 0.6
 
Date/Time
EDT
Wind Sea
Height
m
Swell Vis
km
Cloud Weather Temp
°C
Press
MSL
hPa
Rain since
9am
mm
Dir  Spd
kts
Gust
kts
Height
m
Period
s
Dir
18/11:30pm SSW 4 9 - - - - 10 - - 11.9 1018.8 0.6
18/11:00pm SSW 6 13 - - - - 10 - - 12.2 1018.7 0.6
18/10:30pm SW 5 12 - - - - 10 - - 12.1 1018.4 0.6
18/10:00pm S 6 15 - - - - 10 - - 12.0 1018.3 0.6
18/09:53pm SSW 5 10 - - - - 10 - - 11.7 1018.2 0.6
18/09:36pm SSW 7 12 - - - - 7 - - 11.7 1018.1 0.4
18/09:30pm S 8 14 - - - - 10 - - 11.8 1018.1 0.0
18/09:00pm S 4 8 - - - - 10 - - 12.7 1017.4 0.0
18/08:30pm SSW 7 12 - - - - 10 - - 12.7 1017.2 0.0
18/08:00pm S 7 13 - - - - 10 - - 12.8 1016.7 0.0
18/07:30pm S 6 13 - - - - 10 - - 13.1 1016.2 0.0
18/07:00pm S 7 12 - - - - 10 - - 13.3 1015.9 0.0
18/06:30pm S 7 14 - - - - 10 - - 13.6 1015.6 0.0
18/06:00pm S 7 12 - - - - 10 - - 14.0 1015.3 0.0
18/05:30pm S 6 14 - - - - 10 - - 13.8 1015.0 0.0
18/05:00pm S 6 11 - - - - 10 - - 14.0 1014.7 0.0
18/04:30pm S 8 14 - - - - 10 - - 14.2 1014.2 0.0
18/04:00pm SSW 7 12 - - - - 10 - - 15.0 1014.0 0.0
18/03:30pm S 4 8 - - - - 10 - - 15.6 1013.8 0.0
18/03:00pm S 6 11 - - - - 10 - - 16.1 1013.6 0.0
18/02:30pm SSW 7 11 - - - - 10 - - 16.5 1013.4 0.0
18/02:00pm SSW 7 10 - - - - 10 - - 15.2 1013.4 0.0
18/01:30pm S 5 8 - - - - 10 - - 15.5 1013.3 0.0
18/01:00pm S 3 6 - - - - 10 - - 16.0 1013.3 0.0
18/12:30pm S 3 4 - - - - 10 - - 15.6 1013.4 0.0
18/12:00pm S 3 7 - - - - 10 - - 15.4 1013.5 0.0
18/11:30am SSW 5 8 - - - - 10 - - 14.3 1013.7 0.0
18/11:00am S 5 7 - - - - 10 - - 14.6 1013.7 0.0
18/10:30am SSW 4 5 - - - - 10 - - 14.5 1013.5 0.0
18/10:00am SSW 6 8 - - - - 10 - - 14.6 1013.6 0.0
18/09:30am WSW 5 8 - - - - 10 - - 15.3 1013.5 0.0
18/09:00am WNW 5 8 - - - - 10 - - 15.5 1013.3 0.0
18/08:30am W 3 6 - - - - 10 - - 15.3 1013.1 0.0
18/08:00am NW 7 11 - - - - 10 - - 15.0 1012.9 0.0
18/07:30am NW 3 8 - - - - 10 - - 14.4 1012.6 0.0
18/07:00am WNW 3 5 - - - - 10 - - 14.3 1012.0 0.0
18/06:30am N 6 11 - - - - 10 - - 14.5 1011.6 0.0
18/06:00am N 6 8 - - - - 10 - - 14.1 1011.4 0.0
18/05:30am N 6 9 - - - - 10 - - 13.6 1011.3 0.0
18/05:00am N 5 8 - - - - 10 - - 12.9 1011.2 0.0
18/04:30am NNE 5 7 - - - - 10 - - 12.0 1011.1 0.0
18/04:00am NNE 5 7 - - - - 10 - - 11.7 1011.3 0.0
18/03:30am NE 3 4 - - - - 10 - - 11.0 1011.6 0.0
18/03:00am NNE 4 5 - - - - 10 - - 10.9 1011.8 0.0
18/02:30am NNE 5 6 - - - - 10 - - 11.0 1012.1 0.0
18/02:00am CALM 0 0 - - - - 10 - - 10.0 1012.6 0.0
18/01:30am CALM 0 0 - - - - 10 - - 10.1 1013.1 0.0
18/01:00am CALM 0 0 - - - - 10 - - 10.3 1013.3 0.0
18/12:30am CALM 0 0 - - - - 10 - - 10.7 1013.5 0.0
18/12:00am CALM 0 0 - - - - 10 - - 11.0 1013.7 0.0
 
Date/Time
EDT
Wind Sea
Height
m
Swell Vis
km
Cloud Weather Temp
°C
Press
MSL
hPa
Rain since
9am
mm
Dir  Spd
kts
Gust
kts
Height
m
Period
s
Dir
17/11:30pm CALM 0 0 - - - - 10 - - 11.1 1013.8 0.0
17/11:00pm CALM 0 0 - - - - 10 - - 11.2 1013.8 0.0
17/10:30pm CALM 0 0 - - - - 10 - - 11.5 1013.9 0.0
17/10:00pm CALM 0 0 - - - - 10 - - 12.1 1014.1 0.0
17/09:30pm CALM 0 0 - - - - 10 - - 13.0 1014.2 0.0
17/09:00pm S 3 4 - - - - 10 - - 13.7 1014.0 0.0
17/08:30pm S 2 5 - - - - 10 - - 13.8 1013.7 0.0
17/08:00pm CALM 0 0 - - - - 10 - - 13.5 1013.3 0.0
17/07:30pm SSW 2 4 - - - - 10 - - 14.4 1013.1 0.0
17/07:00pm SSW 3 6 - - - - 10 - - 14.9 1012.7 0.0
17/06:30pm SSW 4 7 - - - - 10 - - 15.4 1012.5 0.0
17/06:00pm S 5 7 - - - - 10 - - 16.5 1012.3 0.0
17/05:30pm SSW 5 8 - - - - 10 - - 15.9 1012.5 0.0
17/05:00pm SSW 5 9 - - - - 10 - - 16.4 1012.5 0.0
17/04:30pm S 5 9 - - - - 10 - - 15.9 1012.7 0.0
17/04:00pm SSW 7 11 - - - - 10 - - 16.0 1012.7 0.0
17/03:30pm S 6 9 - - - - 10 - - 17.0 1012.8 0.0
17/03:00pm SSW 5 8 - - - - 10 - - 16.8 1013.0 0.0
17/02:30pm S 7 11 - - - - 10 - - 16.0 1013.5 0.0
17/02:00pm SSW 5 9 - - - - 10 - - 16.5 1013.4 0.0
17/01:30pm E 3 7 - - - - 10 - - 16.2 1013.8 0.0
17/01:00pm WSW 4 10 - - - - 10 - - 15.6 1014.2 0.0
17/12:30pm NW 5 8 - - - - 10 - - 14.7 1014.3 0.0
17/12:00pm NE 2 5 - - - - 10 - - 14.8 1014.6 0.0
17/11:30am WNW 4 8 - - - - 10 - - 14.3 1015.0 0.0
17/11:00am NW 5 8 - - - - 10 - - 13.5 1015.1 0.0
17/10:30am W 1 6 - - - - 10 - - 13.5 1015.2 0.0
17/10:00am W 2 6 - - - - 10 - - 13.5 1015.3 0.0
17/09:30am W 5 8 - - - - 10 - - 12.9 1015.2 0.0
17/09:00am WNW 5 9 - - - - 10 - - 12.0 1015.3 0.4
17/08:30am WSW 5 9 - - - - 10 - - 12.3 1015.2 0.4
17/08:00am W 3 5 - - - - 10 - - 11.7 1015.0 0.4
17/07:30am W 4 7 - - - - 10 - - 11.5 1014.6 0.4
17/07:00am WNW 5 7 - - - - 10 - - 11.4 1014.4 0.4
17/06:30am WSW 3 7 - - - - 10 - - 11.3 1014.2 0.4
17/06:00am WNW 3 7 - - - - 10 - - 11.4 1013.9 0.4
17/05:30am WNW 3 4 - - - - 10 - - 11.5 1013.4 0.4
17/05:00am NW 2 4 - - - - 10 - - 11.4 1013.3 0.4
17/04:30am WNW 3 6 - - - - 10 - - 11.4 1013.2 0.4
17/04:00am WNW 3 5 - - - - 10 - - 11.2 1013.4 0.4
17/03:30am W 3 6 - - - - 10 - - 11.1 1013.4 0.4
17/03:00am W 3 6 - - - - 10 - - 11.0 1013.6 0.4
17/02:30am WSW 4 6 - - - - 10 - - 10.9 1013.6 0.4
17/02:00am WSW 2 6 - - - - 10 - - 10.9 1013.6 0.4
17/01:30am W 5 7 - - - - 10 - - 11.0 1013.8 0.4
17/01:00am WSW 4 7 - - - - 10 - - 11.3 1013.9 0.4
17/12:30am WSW 5 11 - - - - 10 - - 11.5 1014.0 0.4
17/12:00am W 5 9 - - - - 10 - - 11.7 1014.0 0.4
 
Date/Time
EDT
Wind Sea
Height
m
Swell Vis
km
Cloud Weather Temp
°C
Press
MSL
hPa
Rain since
9am
mm
Dir  Spd
kts
Gust
kts
Height
m
Period
s
Dir
16/11:30pm W 5 10 - - - - 10 - - 11.8 1014.0 0.4
16/11:00pm W 5 10 - - - - 10 - - 12.1 1014.0 0.4
16/10:30pm W 5 8 - - - - 10 - - 12.4 1013.9 0.4
16/10:00pm SSW 6 12 - - - - 10 - - 12.6 1013.8 0.4
16/09:30pm SSW 5 13 - - - - 10 - - 12.7 1013.7 0.4
16/09:00pm SSW 7 12 - - - - 10 - - 12.7 1013.3 0.4
16/08:30pm S 7 13 - - - - 10 - - 12.7 1013.0 0.4
16/08:00pm SSW 7 14 - - - - 10 - - 12.6 1012.6 0.4
16/07:30pm S 8 19 - - - - 10 - - 12.7 1012.2 0.4
16/07:00pm SSW 7 12 - - - - 10 - - 13.1 1011.7 0.4
16/06:30pm SSW 11 17 - - - - 10 - - 13.3 1011.5 0.4
16/06:00pm S 9 14 - - - - 10 - - 13.5 1011.1 0.4
16/05:30pm S 8 19 - - - - 10 - - 13.5 1010.9 0.4
16/05:00pm SSW 9 17 - - - - 10 - - 13.6 1010.5 0.4
16/04:30pm S 7 14 - - - - 10 - - 13.6 1010.5 0.4
16/04:00pm SSW 7 15 - - - - 10 - - 14.3 1010.4 0.4
16/03:30pm S 9 17 - - - - 10 - - 14.8 1010.4 0.4
16/03:00pm S 10 21 - - - - 10 - - 14.5 1010.4 0.4
16/02:30pm SSW 7 13 - - - - 10 - - 15.6 1010.4 0.4
16/02:00pm SSW 7 14 - - - - 10 - - 14.8 1010.6 0.4
16/01:30pm SW 7 16 - - - - 10 - - 14.1 1010.7 0.4
16/01:00pm SSW 10 17 - - - - 10 - - 14.5 1010.4 0.4
16/12:30pm SW 9 17 - - - - 10 - - 14.9 1010.3 0.4
16/12:00pm SSW 10 17 - - - - 10 - Rain 13.9 1010.5 0.4
16/11:30am WSW 8 16 - - - - 10 - - 13.9 1010.3 0.4
16/11:00am SSW 8 18 - - - - 10 - - 13.7 1010.1 0.4
16/10:30am SSW 8 18 - - - - 10 - - 13.1 1010.0 0.4
16/10:00am WSW 6 10 - - - - 10 - - 12.3 1009.7 0.4
16/09:45am SW 6 11 - - - - 10 - - 12.1 1009.7 0.4
16/09:30am WSW 5 9 - - - - 7 - - 11.8 1009.6 0.4
16/09:00am WSW 6 12 - - - - 10 - Drizzle 12.4 1009.0 26.4
16/08:30am WSW 6 14 - - - - 10 - - 12.5 1008.6 26.4
16/08:00am SW 9 20 - - - - 10 - - 12.9 1008.0 26.4
16/07:30am SSW 10 19 - - - - 10 - - 12.8 1007.4 26.4
16/07:00am SSW 9 18 - - - - 10 - - 12.7 1006.8 26.4
16/06:30am SSW 11 19 - - - - 10 - - 12.2 1006.3 26.4
16/06:14am SSW 8 16 - - - - 10 - - 11.8 1005.9 26.4
16/06:00am SSW 11 29 - - - - 4 - Showers 11.5 1005.7 26.4
16/05:50am SSW 10 17 - - - - 6 - - 12.3 1005.4 25.8
16/05:30am SSW 9 18 - - - - 10 - - 12.8 1005.0 25.4
16/05:00am SSW 10 20 - - - - 10 - - 12.5 1004.6 25.4
16/04:47am SSW 9 20 - - - - 10 - - 12.6 1004.6 25.4
16/04:30am SW 10 18 - - - - 9 - - 12.5 1004.1 25.2
16/04:06am SW 10 23 - - - - 7 - - 12.5 1003.9 25.0
16/04:00am SW 9 17 - - - - 10 - - 12.7 1003.8 25.0
16/03:30am WSW 7 17 - - - - 6 - - 11.9 1003.3 24.2
16/03:00am WSW 7 15 - - - - 5 - Rain 11.9 1003.0 23.2
16/02:30am WSW 9 18 - - - - 3 - - 11.9 1002.6 22.4
16/02:00am W 7 16 - - - - 3 - - 11.7 1002.4 20.2
16/01:30am WSW 6 12 - - - - 2 - - 11.6 1002.3 18.2

Other formats

Comma delimited format used in spreadsheet applications
http://www.bom.gov.au/fwo/IDV60701/IDV60701.95936.axf

JavaScript Object Notation format (JSON) in row-major order
http://www.bom.gov.au/fwo/IDV60701/IDV60701.95936.json

Data quality

Most of these data are generated automatically and are frequently updated. Quality checks on data are not normally performed. It is possible for incorrect values to appear. Refer to information at About Latest Weather Observations and please check the disclaimer before using these data.